sensor_id;sensor_type;location;lat;lon;timestamp;temperature;humidity
36800;DHT22;22752;51.960;5.886;2023-05-10T00:01:58;14.40;99.90
36800;DHT22;22752;51.960;5.886;2023-05-10T00:04:24;14.40;99.90
36800;DHT22;22752;51.960;5.886;2023-05-10T00:06:53;14.40;99.90
36800;DHT22;22752;51.960;5.886;2023-05-10T00:09:18;14.50;99.90
36800;DHT22;22752;51.960;5.886;2023-05-10T00:11:44;14.50;99.90
36800;DHT22;22752;51.960;5.886;2023-05-10T00:14:10;14.50;99.90
36800;DHT22;22752;51.960;5.886;2023-05-10T00:16:35;14.50;99.90
36800;DHT22;22752;51.960;5.886;2023-05-10T00:19:01;14.50;99.90
36800;DHT22;22752;51.960;5.886;2023-05-10T00:21:27;14.50;99.90
36800;DHT22;22752;51.960;5.886;2023-05-10T00:23:54;14.50;99.90
36800;DHT22;22752;51.960;5.886;2023-05-10T00:26:20;14.50;99.90
36800;DHT22;22752;51.960;5.886;2023-05-10T00:28:45;14.50;99.90
36800;DHT22;22752;51.960;5.886;2023-05-10T00:31:11;14.40;99.90
36800;DHT22;22752;51.960;5.886;2023-05-10T00:33:36;14.40;99.90
36800;DHT22;22752;51.960;5.886;2023-05-10T00:36:02;14.30;99.90
36800;DHT22;22752;51.960;5.886;2023-05-10T00:38:28;14.40;99.90
36800;DHT22;22752;51.960;5.886;2023-05-10T00:40:54;14.30;99.90
36800;DHT22;22752;51.960;5.886;2023-05-10T00:43:19;14.30;99.90
36800;DHT22;22752;51.960;5.886;2023-05-10T00:45:45;14.30;99.90
36800;DHT22;22752;51.960;5.886;2023-05-10T00:48:11;14.30;99.90
36800;DHT22;22752;51.960;5.886;2023-05-10T00:50:38;14.30;99.90
36800;DHT22;22752;51.960;5.886;2023-05-10T00:53:04;14.30;99.90
36800;DHT22;22752;51.960;5.886;2023-05-10T00:55:30;14.20;99.90
36800;DHT22;22752;51.960;5.886;2023-05-10T00:57:56;14.20;99.90
36800;DHT22;22752;51.960;5.886;2023-05-10T01:00:22;14.20;99.90
36800;DHT22;22752;51.960;5.886;2023-05-10T01:02:48;14.20;99.90
36800;DHT22;22752;51.960;5.886;2023-05-10T01:05:14;14.20;99.90
36800;DHT22;22752;51.960;5.886;2023-05-10T01:07:40;14.20;99.90
36800;DHT22;22752;51.960;5.886;2023-05-10T01:10:07;14.20;99.90
36800;DHT22;22752;51.960;5.886;2023-05-10T01:12:38;14.20;99.90
36800;DHT22;22752;51.960;5.886;2023-05-10T01:15:06;14.30;99.90
36800;DHT22;22752;51.960;5.886;2023-05-10T01:17:34;14.30;99.90
36800;DHT22;22752;51.960;5.886;2023-05-10T01:20:01;14.30;99.90
36800;DHT22;22752;51.960;5.886;2023-05-10T01:28:23;14.40;99.90
36800;DHT22;22752;51.960;5.886;2023-05-10T01:36:17;14.30;99.90
36800;DHT22;22752;51.960;5.886;2023-05-10T01:38:50;14.40;99.90
36800;DHT22;22752;51.960;5.886;2023-05-10T01:44:29;14.40;99.90
36800;DHT22;22752;51.960;5.886;2023-05-10T01:47:04;14.40;99.90
36800;DHT22;22752;51.960;5.886;2023-05-10T01:49:37;14.30;99.90
36800;DHT22;22752;51.960;5.886;2023-05-10T01:52:15;14.30;99.90
36800;DHT22;22752;51.960;5.886;2023-05-10T01:54:49;14.30;99.90
36800;DHT22;22752;51.960;5.886;2023-05-10T01:57:15;14.30;99.90
36800;DHT22;22752;51.960;5.886;2023-05-10T01:59:43;14.30;99.90
36800;DHT22;22752;51.960;5.886;2023-05-10T02:02:11;14.30;99.90
36800;DHT22;22752;51.960;5.886;2023-05-10T02:04:38;14.30;99.90
36800;DHT22;22752;51.960;5.886;2023-05-10T02:07:06;14.30;99.90
36800;DHT22;22752;51.960;5.886;2023-05-10T02:09:33;14.30;99.90
36800;DHT22;22752;51.960;5.886;2023-05-10T02:12:03;14.30;99.90
36800;DHT22;22752;51.960;5.886;2023-05-10T02:14:33;14.30;99.90
36800;DHT22;22752;51.960;5.886;2023-05-10T02:16:59;14.30;99.90
36800;DHT22;22752;51.960;5.886;2023-05-10T02:19:29;14.30;99.90
36800;DHT22;22752;51.960;5.886;2023-05-10T02:21:55;14.30;99.90
36800;DHT22;22752;51.960;5.886;2023-05-10T02:24:24;14.30;99.90
36800;DHT22;22752;51.960;5.886;2023-05-10T02:26:51;14.30;99.90
36800;DHT22;22752;51.960;5.886;2023-05-10T02:29:19;14.30;99.90
36800;DHT22;22752;51.960;5.886;2023-05-10T02:31:46;14.30;99.90
36800;DHT22;22752;51.960;5.886;2023-05-10T02:34:12;14.30;99.90
36800;DHT22;22752;51.960;5.886;2023-05-10T02:36:39;14.30;99.90
36800;DHT22;22752;51.960;5.886;2023-05-10T02:39:06;14.40;99.90
36800;DHT22;22752;51.960;5.886;2023-05-10T02:41:38;14.30;99.90
36800;DHT22;22752;51.960;5.886;2023-05-10T02:44:06;14.30;99.90
36800;DHT22;22752;51.960;5.886;2023-05-10T02:46:33;14.30;99.90
36800;DHT22;22752;51.960;5.886;2023-05-10T02:49:00;14.30;99.90
36800;DHT22;22752;51.960;5.886;2023-05-10T02:51:30;14.30;99.90
36800;DHT22;22752;51.960;5.886;2023-05-10T02:54:07;14.30;99.90
36800;DHT22;22752;51.960;5.886;2023-05-10T02:56:36;14.30;99.90
36800;DHT22;22752;51.960;5.886;2023-05-10T02:59:05;14.20;99.90
36800;DHT22;22752;51.960;5.886;2023-05-10T03:01:30;14.20;99.90
36800;DHT22;22752;51.960;5.886;2023-05-10T03:03:56;14.20;99.90
36800;DHT22;22752;51.960;5.886;2023-05-10T03:06:21;14.20;99.90
36800;DHT22;22752;51.960;5.886;2023-05-10T03:08:47;14.20;99.90
36800;DHT22;22752;51.960;5.886;2023-05-10T03:17:15;14.20;99.90
36800;DHT22;22752;51.960;5.886;2023-05-10T03:22:11;14.10;99.90
36800;DHT22;22752;51.960;5.886;2023-05-10T03:24:39;14.10;99.90
36800;DHT22;22752;51.960;5.886;2023-05-10T03:27:07;14.10;99.90
36800;DHT22;22752;51.960;5.886;2023-05-10T03:29:33;14.00;99.90
36800;DHT22;22752;51.960;5.886;2023-05-10T03:31:59;14.00;99.90
36800;DHT22;22752;51.960;5.886;2023-05-10T03:34:26;14.00;99.90
36800;DHT22;22752;51.960;5.886;2023-05-10T03:36:51;14.00;99.90
36800;DHT22;22752;51.960;5.886;2023-05-10T03:39:17;14.00;99.90
36800;DHT22;22752;51.960;5.886;2023-05-10T03:41:43;14.00;99.90
36800;DHT22;22752;51.960;5.886;2023-05-10T03:44:08;14.00;99.90
36800;DHT22;22752;51.960;5.886;2023-05-10T03:46:34;14.00;99.90
36800;DHT22;22752;51.960;5.886;2023-05-10T03:49:00;14.00;99.90
36800;DHT22;22752;51.960;5.886;2023-05-10T03:51:25;14.00;99.90
36800;DHT22;22752;51.960;5.886;2023-05-10T03:53:56;14.00;99.90
36800;DHT22;22752;51.960;5.886;2023-05-10T03:56:22;14.00;99.90
36800;DHT22;22752;51.960;5.886;2023-05-10T03:58:48;13.90;99.90
36800;DHT22;22752;51.960;5.886;2023-05-10T04:01:13;14.00;99.90
36800;DHT22;22752;51.960;5.886;2023-05-10T04:03:39;13.90;99.90
36800;DHT22;22752;51.960;5.886;2023-05-10T04:06:05;13.90;99.90
36800;DHT22;22752;51.960;5.886;2023-05-10T04:08:31;13.90;99.90
36800;DHT22;22752;51.960;5.886;2023-05-10T04:11:11;13.90;99.90
36800;DHT22;22752;51.960;5.886;2023-05-10T04:13:37;13.90;99.90
36800;DHT22;22752;51.960;5.886;2023-05-10T04:16:04;13.90;99.90
36800;DHT22;22752;51.960;5.886;2023-05-10T04:18:30;13.90;99.90
36800;DHT22;22752;51.960;5.886;2023-05-10T04:20:56;13.90;99.90
36800;DHT22;22752;51.960;5.886;2023-05-10T04:23:22;13.90;99.90
36800;DHT22;22752;51.960;5.886;2023-05-10T04:25:48;13.90;99.90
36800;DHT22;22752;51.960;5.886;2023-05-10T04:28:13;13.80;99.90
36800;DHT22;22752;51.960;5.886;2023-05-10T04:30:39;13.80;99.90
36800;DHT22;22752;51.960;5.886;2023-05-10T04:33:05;13.80;99.90
36800;DHT22;22752;51.960;5.886;2023-05-10T04:35:31;13.80;99.90
36800;DHT22;22752;51.960;5.886;2023-05-10T04:37:57;13.80;99.90
36800;DHT22;22752;51.960;5.886;2023-05-10T04:40:22;13.80;99.90
36800;DHT22;22752;51.960;5.886;2023-05-10T04:42:48;13.80;99.90
36800;DHT22;22752;51.960;5.886;2023-05-10T04:45:13;13.80;99.90
36800;DHT22;22752;51.960;5.886;2023-05-10T04:47:42;13.80;99.90
36800;DHT22;22752;51.960;5.886;2023-05-10T04:50:08;13.80;99.90
36800;DHT22;22752;51.960;5.886;2023-05-10T04:52:33;13.80;99.90
36800;DHT22;22752;51.960;5.886;2023-05-10T04:54:59;13.80;99.90
36800;DHT22;22752;51.960;5.886;2023-05-10T04:57:25;13.90;99.90
36800;DHT22;22752;51.960;5.886;2023-05-10T04:59:51;13.90;99.90
36800;DHT22;22752;51.960;5.886;2023-05-10T05:02:16;13.90;99.90
36800;DHT22;22752;51.960;5.886;2023-05-10T05:04:42;13.90;99.90
36800;DHT22;22752;51.960;5.886;2023-05-10T05:07:08;13.90;99.90
36800;DHT22;22752;51.960;5.886;2023-05-10T05:09:33;13.90;99.90
36800;DHT22;22752;51.960;5.886;2023-05-10T05:11:59;13.90;99.90
36800;DHT22;22752;51.960;5.886;2023-05-10T05:14:24;14.00;99.90
36800;DHT22;22752;51.960;5.886;2023-05-10T05:16:53;14.00;99.90
36800;DHT22;22752;51.960;5.886;2023-05-10T05:19:19;14.00;99.90
36800;DHT22;22752;51.960;5.886;2023-05-10T05:21:44;14.10;99.90
36800;DHT22;22752;51.960;5.886;2023-05-10T05:24:10;14.10;99.90
36800;DHT22;22752;51.960;5.886;2023-05-10T05:26:38;14.10;99.90
36800;DHT22;22752;51.960;5.886;2023-05-10T05:29:04;14.10;99.90
36800;DHT22;22752;51.960;5.886;2023-05-10T05:31:29;14.10;99.90
36800;DHT22;22752;51.960;5.886;2023-05-10T05:33:55;14.20;99.90
36800;DHT22;22752;51.960;5.886;2023-05-10T05:36:21;14.20;99.90
36800;DHT22;22752;51.960;5.886;2023-05-10T05:38:47;14.20;99.90
36800;DHT22;22752;51.960;5.886;2023-05-10T05:41:13;14.30;99.90
36800;DHT22;22752;51.960;5.886;2023-05-10T05:43:38;14.30;99.90
36800;DHT22;22752;51.960;5.886;2023-05-10T05:46:04;14.30;99.90
36800;DHT22;22752;51.960;5.886;2023-05-10T05:48:31;14.40;99.90
36800;DHT22;22752;51.960;5.886;2023-05-10T05:50:57;14.40;99.90
36800;DHT22;22752;51.960;5.886;2023-05-10T05:53:23;14.40;99.90
36800;DHT22;22752;51.960;5.886;2023-05-10T05:55:52;14.50;99.90
36800;DHT22;22752;51.960;5.886;2023-05-10T05:58:19;14.50;99.90
36800;DHT22;22752;51.960;5.886;2023-05-10T06:00:45;14.50;99.90
36800;DHT22;22752;51.960;5.886;2023-05-10T06:03:10;14.60;99.90
36800;DHT22;22752;51.960;5.886;2023-05-10T06:05:36;14.60;99.90
36800;DHT22;22752;51.960;5.886;2023-05-10T06:08:02;14.60;99.90
36800;DHT22;22752;51.960;5.886;2023-05-10T06:10:27;14.60;99.90
36800;DHT22;22752;51.960;5.886;2023-05-10T06:12:53;14.60;99.90
36800;DHT22;22752;51.960;5.886;2023-05-10T06:15:19;14.50;99.90
36800;DHT22;22752;51.960;5.886;2023-05-10T06:17:45;14.50;99.90
36800;DHT22;22752;51.960;5.886;2023-05-10T06:20:12;14.60;99.90
36800;DHT22;22752;51.960;5.886;2023-05-10T06:22:38;14.50;99.90
36800;DHT22;22752;51.960;5.886;2023-05-10T06:25:04;14.50;99.90
36800;DHT22;22752;51.960;5.886;2023-05-10T06:27:30;14.50;99.90
36800;DHT22;22752;51.960;5.886;2023-05-10T06:29:55;14.50;99.90
36800;DHT22;22752;51.960;5.886;2023-05-10T06:32:21;14.50;99.90
36800;DHT22;22752;51.960;5.886;2023-05-10T06:34:47;14.50;99.90
36800;DHT22;22752;51.960;5.886;2023-05-10T06:37:13;14.50;99.90
36800;DHT22;22752;51.960;5.886;2023-05-10T06:39:38;14.50;99.90
36800;DHT22;22752;51.960;5.886;2023-05-10T06:42:04;14.50;99.90
36800;DHT22;22752;51.960;5.886;2023-05-10T06:44:30;14.50;99.90
36800;DHT22;22752;51.960;5.886;2023-05-10T06:46:56;14.50;99.90
36800;DHT22;22752;51.960;5.886;2023-05-10T06:49:21;14.50;99.90
36800;DHT22;22752;51.960;5.886;2023-05-10T06:51:47;14.40;99.90
36800;DHT22;22752;51.960;5.886;2023-05-10T06:54:13;14.50;99.90
36800;DHT22;22752;51.960;5.886;2023-05-10T06:56:39;14.50;99.90
36800;DHT22;22752;51.960;5.886;2023-05-10T06:59:05;14.50;99.90
36800;DHT22;22752;51.960;5.886;2023-05-10T07:01:31;14.50;99.90
36800;DHT22;22752;51.960;5.886;2023-05-10T07:03:56;14.50;99.90
36800;DHT22;22752;51.960;5.886;2023-05-10T07:06:22;14.50;99.90
36800;DHT22;22752;51.960;5.886;2023-05-10T07:08:47;14.60;99.90
36800;DHT22;22752;51.960;5.886;2023-05-10T07:11:13;14.60;99.90
36800;DHT22;22752;51.960;5.886;2023-05-10T07:13:39;14.60;99.90
36800;DHT22;22752;51.960;5.886;2023-05-10T07:16:07;14.60;99.90
36800;DHT22;22752;51.960;5.886;2023-05-10T07:18:33;14.70;99.90
36800;DHT22;22752;51.960;5.886;2023-05-10T07:20:59;14.70;99.90
36800;DHT22;22752;51.960;5.886;2023-05-10T07:23:24;14.70;99.90
36800;DHT22;22752;51.960;5.886;2023-05-10T07:25:51;14.70;99.90
36800;DHT22;22752;51.960;5.886;2023-05-10T07:28:17;14.70;99.90
36800;DHT22;22752;51.960;5.886;2023-05-10T07:30:43;14.80;99.90
36800;DHT22;22752;51.960;5.886;2023-05-10T07:33:10;14.80;99.90
36800;DHT22;22752;51.960;5.886;2023-05-10T07:35:36;14.80;99.90
36800;DHT22;22752;51.960;5.886;2023-05-10T07:38:02;14.80;99.90
36800;DHT22;22752;51.960;5.886;2023-05-10T07:40:28;14.80;99.90
36800;DHT22;22752;51.960;5.886;2023-05-10T07:42:54;14.90;99.90
36800;DHT22;22752;51.960;5.886;2023-05-10T07:45:20;15.00;99.90
36800;DHT22;22752;51.960;5.886;2023-05-10T07:47:45;15.20;99.90
36800;DHT22;22752;51.960;5.886;2023-05-10T07:50:11;15.20;99.90
36800;DHT22;22752;51.960;5.886;2023-05-10T07:52:37;15.30;99.90
36800;DHT22;22752;51.960;5.886;2023-05-10T07:55:02;15.30;99.90
36800;DHT22;22752;51.960;5.886;2023-05-10T07:57:28;15.30;99.90
36800;DHT22;22752;51.960;5.886;2023-05-10T07:59:54;15.30;99.90
36800;DHT22;22752;51.960;5.886;2023-05-10T08:02:20;15.40;99.90
36800;DHT22;22752;51.960;5.886;2023-05-10T08:04:45;15.60;99.90
36800;DHT22;22752;51.960;5.886;2023-05-10T08:07:11;15.80;99.90
36800;DHT22;22752;51.960;5.886;2023-05-10T08:09:37;16.10;99.90
36800;DHT22;22752;51.960;5.886;2023-05-10T08:12:02;16.20;99.90
36800;DHT22;22752;51.960;5.886;2023-05-10T08:14:31;16.30;99.90
36800;DHT22;22752;51.960;5.886;2023-05-10T08:16:57;16.40;99.90
36800;DHT22;22752;51.960;5.886;2023-05-10T08:19:22;16.70;99.90
36800;DHT22;22752;51.960;5.886;2023-05-10T08:21:49;16.90;99.90
36800;DHT22;22752;51.960;5.886;2023-05-10T08:24:15;16.90;99.90
36800;DHT22;22752;51.960;5.886;2023-05-10T08:26:40;16.80;99.90
36800;DHT22;22752;51.960;5.886;2023-05-10T08:29:06;16.90;99.90
36800;DHT22;22752;51.960;5.886;2023-05-10T08:31:32;17.00;99.90
36800;DHT22;22752;51.960;5.886;2023-05-10T08:33:57;17.20;99.90
36800;DHT22;22752;51.960;5.886;2023-05-10T08:36:23;17.30;99.90
36800;DHT22;22752;51.960;5.886;2023-05-10T08:38:53;17.30;99.90
36800;DHT22;22752;51.960;5.886;2023-05-10T08:41:23;17.30;99.90
36800;DHT22;22752;51.960;5.886;2023-05-10T08:43:55;17.20;99.90
36800;DHT22;22752;51.960;5.886;2023-05-10T08:46:22;17.00;99.90
36800;DHT22;22752;51.960;5.886;2023-05-10T08:48:50;16.60;99.90
36800;DHT22;22752;51.960;5.886;2023-05-10T08:51:22;16.40;99.90
36800;DHT22;22752;51.960;5.886;2023-05-10T08:53:50;16.40;99.90
36800;DHT22;22752;51.960;5.886;2023-05-10T08:56:16;16.40;99.90
36800;DHT22;22752;51.960;5.886;2023-05-10T08:58:43;16.40;99.90
36800;DHT22;22752;51.960;5.886;2023-05-10T09:01:09;16.50;99.90
36800;DHT22;22752;51.960;5.886;2023-05-10T09:03:38;16.50;99.90
36800;DHT22;22752;51.960;5.886;2023-05-10T09:06:04;16.60;99.90
36800;DHT22;22752;51.960;5.886;2023-05-10T09:08:30;16.80;99.90
36800;DHT22;22752;51.960;5.886;2023-05-10T09:10:56;17.20;99.90
36800;DHT22;22752;51.960;5.886;2023-05-10T09:13:23;17.50;99.90
36800;DHT22;22752;51.960;5.886;2023-05-10T09:15:49;18.00;99.90
36800;DHT22;22752;51.960;5.886;2023-05-10T09:18:15;18.30;99.90
36800;DHT22;22752;51.960;5.886;2023-05-10T09:20:41;18.50;99.90
36800;DHT22;22752;51.960;5.886;2023-05-10T09:23:07;18.40;99.90
36800;DHT22;22752;51.960;5.886;2023-05-10T09:25:33;18.30;99.90
36800;DHT22;22752;51.960;5.886;2023-05-10T09:27:59;18.20;99.90
36800;DHT22;22752;51.960;5.886;2023-05-10T09:30:27;18.00;99.90
36800;DHT22;22752;51.960;5.886;2023-05-10T09:32:53;18.00;99.90
36800;DHT22;22752;51.960;5.886;2023-05-10T09:35:22;18.10;99.90
36800;DHT22;22752;51.960;5.886;2023-05-10T09:37:53;18.20;99.90
36800;DHT22;22752;51.960;5.886;2023-05-10T09:40:21;18.30;99.90
36800;DHT22;22752;51.960;5.886;2023-05-10T09:43:10;18.40;99.90
36800;DHT22;22752;51.960;5.886;2023-05-10T09:45:36;18.60;99.90
36800;DHT22;22752;51.960;5.886;2023-05-10T09:48:03;18.50;99.90
36800;DHT22;22752;51.960;5.886;2023-05-10T09:50:29;18.60;99.90
36800;DHT22;22752;51.960;5.886;2023-05-10T09:55:26;18.70;99.90
36800;DHT22;22752;51.960;5.886;2023-05-10T09:58:03;18.60;99.90
36800;DHT22;22752;51.960;5.886;2023-05-10T10:00:35;18.60;99.90
36800;DHT22;22752;51.960;5.886;2023-05-10T10:03:02;18.40;99.90
36800;DHT22;22752;51.960;5.886;2023-05-10T10:05:32;18.40;99.90
36800;DHT22;22752;51.960;5.886;2023-05-10T10:08:00;18.30;99.90
36800;DHT22;22752;51.960;5.886;2023-05-10T10:10:26;18.20;99.90
36800;DHT22;22752;51.960;5.886;2023-05-10T10:12:54;18.10;99.90
36800;DHT22;22752;51.960;5.886;2023-05-10T10:15:24;18.20;99.90
36800;DHT22;22752;51.960;5.886;2023-05-10T10:17:50;18.30;99.90
36800;DHT22;22752;51.960;5.886;2023-05-10T10:20:18;18.30;99.90
36800;DHT22;22752;51.960;5.886;2023-05-10T10:22:44;18.30;99.90
36800;DHT22;22752;51.960;5.886;2023-05-10T10:25:13;18.30;99.90
36800;DHT22;22752;51.960;5.886;2023-05-10T10:35:58;17.90;99.90
36800;DHT22;22752;51.960;5.886;2023-05-10T10:38:25;17.80;99.90
36800;DHT22;22752;51.960;5.886;2023-05-10T10:41:09;17.80;99.90
36800;DHT22;22752;51.960;5.886;2023-05-10T10:43:35;17.80;99.90
36800;DHT22;22752;51.960;5.886;2023-05-10T10:46:15;17.90;99.90
36800;DHT22;22752;51.960;5.886;2023-05-10T10:48:48;17.90;99.90
36800;DHT22;22752;51.960;5.886;2023-05-10T10:51:14;17.90;99.90
36800;DHT22;22752;51.960;5.886;2023-05-10T10:53:40;17.90;99.90
36800;DHT22;22752;51.960;5.886;2023-05-10T10:56:12;17.80;99.90
36800;DHT22;22752;51.960;5.886;2023-05-10T10:58:40;17.70;99.90
36800;DHT22;22752;51.960;5.886;2023-05-10T11:01:17;17.70;99.90
36800;DHT22;22752;51.960;5.886;2023-05-10T11:04:18;17.80;99.90
36800;DHT22;22752;51.960;5.886;2023-05-10T11:06:44;18.00;99.90
36800;DHT22;22752;51.960;5.886;2023-05-10T11:09:11;18.20;99.90
36800;DHT22;22752;51.960;5.886;2023-05-10T11:11:50;18.50;99.90
36800;DHT22;22752;51.960;5.886;2023-05-10T11:14:20;18.70;99.90
36800;DHT22;22752;51.960;5.886;2023-05-10T11:16:45;18.80;99.90
36800;DHT22;22752;51.960;5.886;2023-05-10T11:19:13;18.80;99.90
36800;DHT22;22752;51.960;5.886;2023-05-10T11:21:50;19.00;99.90
36800;DHT22;22752;51.960;5.886;2023-05-10T11:24:18;19.30;99.90
36800;DHT22;22752;51.960;5.886;2023-05-10T11:26:44;19.60;99.90
36800;DHT22;22752;51.960;5.886;2023-05-10T11:29:10;19.70;99.90
36800;DHT22;22752;51.960;5.886;2023-05-10T11:31:45;19.70;99.90
36800;DHT22;22752;51.960;5.886;2023-05-10T11:34:22;19.80;99.90
36800;DHT22;22752;51.960;5.886;2023-05-10T11:36:51;19.80;99.90
36800;DHT22;22752;51.960;5.886;2023-05-10T11:39:19;19.90;99.90
36800;DHT22;22752;51.960;5.886;2023-05-10T11:41:48;19.90;99.90
36800;DHT22;22752;51.960;5.886;2023-05-10T11:44:14;20.00;99.90
36800;DHT22;22752;51.960;5.886;2023-05-10T11:46:40;20.00;99.90
36800;DHT22;22752;51.960;5.886;2023-05-10T11:49:07;20.00;99.90
36800;DHT22;22752;51.960;5.886;2023-05-10T11:51:34;20.10;99.90
36800;DHT22;22752;51.960;5.886;2023-05-10T11:54:09;20.10;99.90
36800;DHT22;22752;51.960;5.886;2023-05-10T11:56:36;20.20;99.90
36800;DHT22;22752;51.960;5.886;2023-05-10T11:59:03;20.30;99.90
36800;DHT22;22752;51.960;5.886;2023-05-10T12:01:30;20.30;99.90
36800;DHT22;22752;51.960;5.886;2023-05-10T12:03:57;20.30;99.90
36800;DHT22;22752;51.960;5.886;2023-05-10T12:06:28;20.30;99.90
36800;DHT22;22752;51.960;5.886;2023-05-10T12:08:56;20.40;99.90
36800;DHT22;22752;51.960;5.886;2023-05-10T12:11:25;20.40;99.90
36800;DHT22;22752;51.960;5.886;2023-05-10T12:13:51;20.50;99.90
36800;DHT22;22752;51.960;5.886;2023-05-10T12:16:19;20.50;99.90
36800;DHT22;22752;51.960;5.886;2023-05-10T12:18:49;20.70;99.90
36800;DHT22;22752;51.960;5.886;2023-05-10T12:21:15;20.80;99.90
36800;DHT22;22752;51.960;5.886;2023-05-10T12:23:41;20.80;99.90
36800;DHT22;22752;51.960;5.886;2023-05-10T12:26:10;20.70;99.90
36800;DHT22;22752;51.960;5.886;2023-05-10T12:28:37;20.60;99.90
36800;DHT22;22752;51.960;5.886;2023-05-10T12:31:03;20.60;99.90
36800;DHT22;22752;51.960;5.886;2023-05-10T12:33:37;20.60;99.90
36800;DHT22;22752;51.960;5.886;2023-05-10T12:36:11;20.60;99.90
36800;DHT22;22752;51.960;5.886;2023-05-10T12:38:41;20.60;99.90
36800;DHT22;22752;51.960;5.886;2023-05-10T12:41:14;20.60;99.90
36800;DHT22;22752;51.960;5.886;2023-05-10T12:43:41;20.70;99.90
36800;DHT22;22752;51.960;5.886;2023-05-10T12:46:10;20.70;99.90
36800;DHT22;22752;51.960;5.886;2023-05-10T12:48:37;20.70;99.90
36800;DHT22;22752;51.960;5.886;2023-05-10T12:51:03;20.70;99.90
36800;DHT22;22752;51.960;5.886;2023-05-10T12:53:30;20.70;99.90
36800;DHT22;22752;51.960;5.886;2023-05-10T12:55:56;20.70;99.90
36800;DHT22;22752;51.960;5.886;2023-05-10T12:58:22;20.70;99.90
36800;DHT22;22752;51.960;5.886;2023-05-10T13:00:48;20.70;99.90
36800;DHT22;22752;51.960;5.886;2023-05-10T13:03:14;20.70;99.90
36800;DHT22;22752;51.960;5.886;2023-05-10T13:05:41;20.80;99.90
36800;DHT22;22752;51.960;5.886;2023-05-10T13:08:06;20.70;99.90
36800;DHT22;22752;51.960;5.886;2023-05-10T13:10:32;20.70;99.90
36800;DHT22;22752;51.960;5.886;2023-05-10T13:12:58;20.70;99.90
36800;DHT22;22752;51.960;5.886;2023-05-10T13:15:24;20.90;99.90
36800;DHT22;22752;51.960;5.886;2023-05-10T13:17:50;20.90;99.90
36800;DHT22;22752;51.960;5.886;2023-05-10T13:20:16;20.90;99.90
36800;DHT22;22752;51.960;5.886;2023-05-10T13:22:43;20.80;99.90
36800;DHT22;22752;51.960;5.886;2023-05-10T13:25:09;20.80;99.90
36800;DHT22;22752;51.960;5.886;2023-05-10T13:27:35;20.60;99.90
36800;DHT22;22752;51.960;5.886;2023-05-10T13:30:02;20.50;99.90
36800;DHT22;22752;51.960;5.886;2023-05-10T13:32:28;20.40;99.90
36800;DHT22;22752;51.960;5.886;2023-05-10T13:34:55;20.20;99.90
36800;DHT22;22752;51.960;5.886;2023-05-10T13:37:20;20.10;99.90
36800;DHT22;22752;51.960;5.886;2023-05-10T13:39:47;20.00;99.90
36800;DHT22;22752;51.960;5.886;2023-05-10T13:42:12;19.90;99.90
36800;DHT22;22752;51.960;5.886;2023-05-10T13:44:38;19.80;99.90
36800;DHT22;22752;51.960;5.886;2023-05-10T13:47:04;19.70;99.90
36800;DHT22;22752;51.960;5.886;2023-05-10T13:49:30;19.60;99.90
36800;DHT22;22752;51.960;5.886;2023-05-10T13:51:56;19.50;99.90
36800;DHT22;22752;51.960;5.886;2023-05-10T13:54:21;19.40;99.90
36800;DHT22;22752;51.960;5.886;2023-05-10T13:56:47;19.10;99.90
36800;DHT22;22752;51.960;5.886;2023-05-10T13:59:14;18.90;99.90
36800;DHT22;22752;51.960;5.886;2023-05-10T14:01:40;18.70;99.90
36800;DHT22;22752;51.960;5.886;2023-05-10T14:04:06;18.60;99.90
36800;DHT22;22752;51.960;5.886;2023-05-10T14:06:35;18.60;99.90
36800;DHT22;22752;51.960;5.886;2023-05-10T14:09:02;18.60;99.90
36800;DHT22;22752;51.960;5.886;2023-05-10T14:11:28;18.50;99.90
36800;DHT22;22752;51.960;5.886;2023-05-10T14:13:54;18.40;99.90
36800;DHT22;22752;51.960;5.886;2023-05-10T14:16:20;18.30;99.90
36800;DHT22;22752;51.960;5.886;2023-05-10T14:18:46;18.40;99.90
36800;DHT22;22752;51.960;5.886;2023-05-10T14:21:12;18.40;99.90
36800;DHT22;22752;51.960;5.886;2023-05-10T14:23:38;18.60;99.90
36800;DHT22;22752;51.960;5.886;2023-05-10T14:26:03;18.70;99.90
36800;DHT22;22752;51.960;5.886;2023-05-10T14:28:29;18.70;99.90
36800;DHT22;22752;51.960;5.886;2023-05-10T14:30:55;18.70;99.90
36800;DHT22;22752;51.960;5.886;2023-05-10T14:33:20;18.80;99.90
36800;DHT22;22752;51.960;5.886;2023-05-10T14:35:46;18.90;99.90
36800;DHT22;22752;51.960;5.886;2023-05-10T14:38:12;18.90;99.90
36800;DHT22;22752;51.960;5.886;2023-05-10T14:40:38;18.90;99.90
36800;DHT22;22752;51.960;5.886;2023-05-10T14:43:04;18.80;99.90
36800;DHT22;22752;51.960;5.886;2023-05-10T14:45:30;18.70;99.90
36800;DHT22;22752;51.960;5.886;2023-05-10T14:47:55;18.60;99.90
36800;DHT22;22752;51.960;5.886;2023-05-10T14:50:21;18.50;99.90
36800;DHT22;22752;51.960;5.886;2023-05-10T14:52:47;18.50;99.90
36800;DHT22;22752;51.960;5.886;2023-05-10T14:55:13;18.50;99.90
36800;DHT22;22752;51.960;5.886;2023-05-10T14:57:38;18.50;99.90
36800;DHT22;22752;51.960;5.886;2023-05-10T15:00:04;18.40;99.90
36800;DHT22;22752;51.960;5.886;2023-05-10T15:02:31;18.40;99.90
36800;DHT22;22752;51.960;5.886;2023-05-10T15:04:57;18.50;99.90
36800;DHT22;22752;51.960;5.886;2023-05-10T15:07:23;18.70;99.90
36800;DHT22;22752;51.960;5.886;2023-05-10T15:09:50;18.80;99.90
36800;DHT22;22752;51.960;5.886;2023-05-10T15:12:17;18.90;99.90
36800;DHT22;22752;51.960;5.886;2023-05-10T15:14:42;19.00;99.90
36800;DHT22;22752;51.960;5.886;2023-05-10T15:17:08;19.10;99.90
36800;DHT22;22752;51.960;5.886;2023-05-10T15:19:34;19.10;99.90
36800;DHT22;22752;51.960;5.886;2023-05-10T15:21:59;18.90;99.90
36800;DHT22;22752;51.960;5.886;2023-05-10T15:24:25;18.80;99.90
36800;DHT22;22752;51.960;5.886;2023-05-10T15:26:51;18.70;99.90
36800;DHT22;22752;51.960;5.886;2023-05-10T15:29:16;18.70;99.90
36800;DHT22;22752;51.960;5.886;2023-05-10T15:31:49;18.70;99.90
36800;DHT22;22752;51.960;5.886;2023-05-10T15:34:15;18.80;99.90
36800;DHT22;22752;51.960;5.886;2023-05-10T15:36:41;18.80;99.90
36800;DHT22;22752;51.960;5.886;2023-05-10T15:39:07;18.80;99.90
36800;DHT22;22752;51.960;5.886;2023-05-10T15:41:34;18.70;99.90
36800;DHT22;22752;51.960;5.886;2023-05-10T15:44:00;18.70;99.90
36800;DHT22;22752;51.960;5.886;2023-05-10T15:46:27;18.60;99.90
36800;DHT22;22752;51.960;5.886;2023-05-10T15:48:53;18.50;99.90
36800;DHT22;22752;51.960;5.886;2023-05-10T15:51:18;18.50;99.90
36800;DHT22;22752;51.960;5.886;2023-05-10T15:53:45;18.50;99.90
36800;DHT22;22752;51.960;5.886;2023-05-10T15:56:10;18.40;99.90
36800;DHT22;22752;51.960;5.886;2023-05-10T15:58:37;18.40;99.90
36800;DHT22;22752;51.960;5.886;2023-05-10T16:01:03;18.40;99.90
36800;DHT22;22752;51.960;5.886;2023-05-10T16:03:30;18.40;99.90